createdAt,value
2018-12-14T00:01:55.386Z,-1.20
2018-12-14T00:04:23.818Z,-1.20
2018-12-14T00:06:51.495Z,-1.20
2018-12-14T00:09:19.225Z,-1.10
2018-12-14T00:11:46.901Z,-1.10
2018-12-14T00:14:14.636Z,-1.20
2018-12-14T00:16:42.395Z,-1.20
2018-12-14T00:19:10.116Z,-1.20
2018-12-14T00:21:37.875Z,-1.30
2018-12-14T00:24:05.618Z,-1.30
2018-12-14T00:26:33.372Z,-1.30
2018-12-14T00:29:01.103Z,-1.30
2018-12-14T00:31:28.811Z,-1.30
2018-12-14T00:33:56.512Z,-1.30
2018-12-14T00:36:24.242Z,-1.40
2018-12-14T00:38:51.982Z,-1.40
2018-12-14T00:41:19.732Z,-1.40
2018-12-14T00:43:47.451Z,-1.40
2018-12-14T00:46:15.155Z,-1.50
2018-12-14T00:48:42.932Z,-1.40
2018-12-14T00:51:10.626Z,-1.40
2018-12-14T00:53:38.363Z,-1.40
2018-12-14T00:56:06.116Z,-1.40
2018-12-14T00:58:33.795Z,-1.40
2018-12-14T01:01:01.527Z,-1.40
2018-12-14T01:03:29.262Z,-1.40
2018-12-14T01:05:56.963Z,-1.40
2018-12-14T01:08:24.726Z,-1.40
2018-12-14T01:10:52.438Z,-1.50
2018-12-14T01:13:20.245Z,-1.60
2018-12-14T01:15:48.023Z,-1.50
2018-12-14T01:18:16.669Z,-1.50
2018-12-14T01:20:44.390Z,-1.50
2018-12-14T01:23:12.143Z,-1.50
2018-12-14T01:25:40.016Z,-1.60
2018-12-14T01:28:07.783Z,-1.60
2018-12-14T01:30:35.531Z,-1.70
2018-12-14T01:33:03.219Z,-1.70
2018-12-14T01:35:30.969Z,-1.70
2018-12-14T01:37:58.670Z,-1.70
2018-12-14T01:40:26.430Z,-1.70
2018-12-14T01:42:54.171Z,-1.60
2018-12-14T01:45:21.917Z,-1.60
2018-12-14T01:47:49.656Z,-1.60
2018-12-14T01:50:17.364Z,-1.60
2018-12-14T01:52:45.225Z,-1.60
2018-12-14T01:55:12.916Z,-1.60
2018-12-14T01:57:41.499Z,-1.60
2018-12-14T02:00:09.588Z,-1.60
2018-12-14T02:02:37.346Z,-1.60
2018-12-14T02:05:05.559Z,-1.60
2018-12-14T02:07:33.309Z,-1.60
2018-12-14T02:10:01.065Z,-1.60
2018-12-14T02:12:28.805Z,-1.60
2018-12-14T02:14:56.496Z,-1.70
2018-12-14T02:17:24.246Z,-1.70
2018-12-14T02:19:52.102Z,-1.70
2018-12-14T02:22:19.869Z,-1.70
2018-12-14T02:24:47.570Z,-1.70
2018-12-14T02:27:15.295Z,-1.80
2018-12-14T02:29:43.044Z,-1.70
2018-12-14T02:32:11.264Z,-1.70
2018-12-14T02:34:39.396Z,-1.70
2018-12-14T02:37:07.109Z,-1.70
2018-12-14T02:39:34.874Z,-1.70
2018-12-14T02:42:02.610Z,-1.60
2018-12-14T02:44:31.397Z,-1.60
2018-12-14T02:46:59.267Z,-1.60
2018-12-14T02:49:27.052Z,-1.60
2018-12-14T02:51:54.759Z,-1.60
2018-12-14T02:54:22.488Z,-1.60
2018-12-14T02:56:50.211Z,-1.60
2018-12-14T02:59:17.957Z,-1.60
2018-12-14T03:01:45.731Z,-1.50
2018-12-14T03:04:13.469Z,-1.50
2018-12-14T03:06:41.224Z,-1.50
2018-12-14T03:09:09.102Z,-1.50
2018-12-14T03:11:36.843Z,-1.50
2018-12-14T03:14:04.599Z,-1.50
2018-12-14T03:16:32.360Z,-1.50
2018-12-14T03:19:00.065Z,-1.50
2018-12-14T03:21:27.825Z,-1.50
2018-12-14T03:23:55.535Z,-1.50
2018-12-14T03:26:23.275Z,-1.50
2018-12-14T03:28:51.027Z,-1.50
2018-12-14T03:31:21.935Z,-1.50
2018-12-14T03:33:49.663Z,-1.50
2018-12-14T03:36:17.391Z,-1.50
2018-12-14T03:38:45.166Z,-1.50
2018-12-14T03:41:12.951Z,-1.50
2018-12-14T03:43:40.696Z,-1.50
2018-12-14T03:46:08.391Z,-1.50
2018-12-14T03:48:36.143Z,-1.50
2018-12-14T03:51:03.850Z,-1.50
2018-12-14T03:53:31.575Z,-1.50
2018-12-14T03:55:59.249Z,-1.50
2018-12-14T03:58:26.974Z,-1.60
2018-12-14T04:00:54.856Z,-1.60
2018-12-14T04:03:22.566Z,-1.60
2018-12-14T04:05:50.294Z,-1.60
2018-12-14T04:08:17.999Z,-1.60
2018-12-14T04:10:45.766Z,-1.60
2018-12-14T04:13:13.485Z,-1.70
2018-12-14T04:15:41.272Z,-1.70
2018-12-14T04:18:08.990Z,-1.70
2018-12-14T04:20:36.749Z,-1.70
2018-12-14T04:23:04.515Z,-1.60
2018-12-14T04:25:32.351Z,-1.60
2018-12-14T04:28:00.145Z,-1.60
2018-12-14T04:30:27.914Z,-1.60
2018-12-14T04:32:56.869Z,-1.70
2018-12-14T04:35:24.845Z,-1.70
2018-12-14T04:37:52.521Z,-1.70
2018-12-14T04:40:20.275Z,-1.80
2018-12-14T04:42:49.000Z,-1.70
2018-12-14T04:45:17.060Z,-1.70
2018-12-14T04:47:44.771Z,-1.70
2018-12-14T04:50:12.502Z,-1.70
2018-12-14T04:52:40.253Z,-1.70
2018-12-14T04:55:08.146Z,-1.70
2018-12-14T04:57:35.831Z,-1.80
2018-12-14T05:00:05.753Z,-1.80
2018-12-14T05:02:33.514Z,-1.80
2018-12-14T05:05:01.222Z,-1.80
2018-12-14T05:07:28.994Z,-1.80
2018-12-14T05:09:56.701Z,-1.90
2018-12-14T05:12:24.430Z,-1.90
2018-12-14T05:14:52.391Z,-1.90
2018-12-14T05:17:20.381Z,-1.90
2018-12-14T05:19:48.130Z,-1.90
2018-12-14T05:22:15.863Z,-1.90
2018-12-14T05:24:43.536Z,-2.00
2018-12-14T05:27:11.546Z,-2.00
2018-12-14T05:29:39.387Z,-2.00
2018-12-14T05:32:07.156Z,-1.90
2018-12-14T05:34:34.893Z,-2.00
2018-12-14T05:37:02.668Z,-2.00
2018-12-14T05:39:30.420Z,-2.00
2018-12-14T05:41:58.137Z,-2.00
2018-12-14T05:44:25.910Z,-2.00
2018-12-14T05:46:53.611Z,-1.90
2018-12-14T05:49:21.356Z,-1.90
2018-12-14T05:51:49.088Z,-1.80
2018-12-14T05:54:16.840Z,-1.80
2018-12-14T05:56:44.753Z,-1.80
2018-12-14T05:59:12.536Z,-1.80
2018-12-14T06:01:40.319Z,-1.80
2018-12-14T06:04:08.106Z,-1.90
2018-12-14T06:06:36.025Z,-1.90
2018-12-14T06:09:04.833Z,-1.90
2018-12-14T06:11:32.519Z,-2.00
2018-12-14T06:14:00.416Z,-2.00
2018-12-14T06:16:28.166Z,-2.10
2018-12-14T06:18:55.969Z,-2.00
2018-12-14T06:21:23.707Z,-2.10
2018-12-14T06:23:51.457Z,-2.10
2018-12-14T06:26:19.211Z,-2.00
2018-12-14T06:28:46.965Z,-2.00
2018-12-14T06:31:14.738Z,-2.00
2018-12-14T06:33:42.758Z,-2.00
2018-12-14T06:36:10.514Z,-2.10
2018-12-14T06:38:38.194Z,-2.10
2018-12-14T06:41:05.947Z,-2.10
2018-12-14T06:43:33.647Z,-2.00
2018-12-14T06:46:01.385Z,-1.90
2018-12-14T06:48:29.128Z,-1.90
2018-12-14T06:50:57.122Z,-1.90
2018-12-14T06:53:24.883Z,-1.80
2018-12-14T06:55:52.611Z,-1.80
2018-12-14T06:58:20.312Z,-1.80
2018-12-14T07:00:48.035Z,-1.80
2018-12-14T07:03:15.736Z,-1.80
2018-12-14T07:05:43.478Z,-1.80
2018-12-14T07:08:11.274Z,-1.80
2018-12-14T07:10:39.006Z,-1.80
2018-12-14T07:13:06.769Z,-1.80
2018-12-14T07:15:34.521Z,-1.80
2018-12-14T07:18:02.226Z,-1.80
2018-12-14T07:20:30.102Z,-1.80
2018-12-14T07:22:57.786Z,-1.80
2018-12-14T07:25:25.534Z,-1.70
2018-12-14T07:27:53.259Z,-1.70
2018-12-14T07:30:21.009Z,-1.70
2018-12-14T07:32:48.766Z,-1.70
2018-12-14T07:35:16.445Z,-1.70
2018-12-14T07:37:44.201Z,-1.70
2018-12-14T07:40:11.924Z,-1.60
2018-12-14T07:42:39.662Z,-1.60
2018-12-14T07:45:07.552Z,-1.60
2018-12-14T07:47:35.349Z,-1.60
2018-12-14T07:50:03.737Z,-1.60
2018-12-14T07:52:31.459Z,-1.60
2018-12-14T07:54:59.176Z,-1.60
2018-12-14T07:57:26.926Z,-1.60
2018-12-14T07:59:54.646Z,-1.60
2018-12-14T08:02:22.351Z,-1.60
2018-12-14T08:04:50.075Z,-1.70
2018-12-14T08:07:17.812Z,-1.70
2018-12-14T08:09:45.583Z,-1.60
2018-12-14T08:12:13.366Z,-1.60
2018-12-14T08:14:41.107Z,-1.50
2018-12-14T08:17:08.825Z,-1.50
2018-12-14T08:19:41.926Z,-1.40
2018-12-14T08:22:09.674Z,-1.40
2018-12-14T08:24:37.375Z,-1.30
2018-12-14T08:27:05.085Z,-1.20
2018-12-14T08:29:32.855Z,-1.20
2018-12-14T08:32:00.620Z,-1.20
2018-12-14T08:34:28.305Z,-1.20
2018-12-14T08:36:55.988Z,-1.20
2018-12-14T08:39:23.729Z,-1.20
2018-12-14T08:41:51.465Z,-1.10
2018-12-14T08:44:19.343Z,-1.20
2018-12-14T08:46:47.057Z,-1.20
2018-12-14T08:49:14.778Z,-1.20
2018-12-14T08:51:42.510Z,-1.20
2018-12-14T08:54:10.217Z,-1.20
2018-12-14T08:56:37.985Z,-1.20
2018-12-14T08:59:05.685Z,-1.30
2018-12-14T09:01:33.435Z,-1.30
2018-12-14T09:04:01.123Z,-1.30
2018-12-14T09:06:28.880Z,-1.40
2018-12-14T09:08:56.592Z,-1.30
2018-12-14T09:11:24.350Z,-1.20
2018-12-14T09:13:52.054Z,-1.20
2018-12-14T09:16:19.755Z,-1.10
2018-12-14T09:18:47.504Z,-0.90
2018-12-14T09:21:15.263Z,-0.80
2018-12-14T09:23:42.974Z,-0.80
2018-12-14T09:26:10.789Z,-0.70
2018-12-14T09:28:38.747Z,-0.50
2018-12-14T09:31:06.484Z,-0.30
2018-12-14T09:33:34.175Z,-0.20
2018-12-14T09:36:01.915Z,0.00
2018-12-14T09:38:29.598Z,0.20
2018-12-14T09:40:57.334Z,0.30
2018-12-14T09:43:25.074Z,0.40
2018-12-14T09:45:52.743Z,0.40
2018-12-14T09:48:20.495Z,0.40
2018-12-14T09:50:48.192Z,0.30
2018-12-14T09:53:15.953Z,0.20
2018-12-14T09:55:43.675Z,0.00
2018-12-14T09:58:11.424Z,-0.10
2018-12-14T10:00:39.212Z,-0.10
2018-12-14T10:03:06.902Z,-0.10
2018-12-14T10:05:34.663Z,0.00
2018-12-14T10:08:02.414Z,0.10
2018-12-14T10:10:30.192Z,0.10
2018-12-14T10:12:57.936Z,0.10
2018-12-14T10:15:25.650Z,0.20
2018-12-14T10:17:53.355Z,0.40
2018-12-14T10:20:21.033Z,0.50
2018-12-14T10:22:48.775Z,0.40
2018-12-14T10:25:16.486Z,0.40
2018-12-14T10:27:44.194Z,0.20
2018-12-14T10:30:11.955Z,0.10
2018-12-14T10:32:39.647Z,0.20
2018-12-14T10:35:09.629Z,0.40
2018-12-14T10:37:37.614Z,0.50
2018-12-14T10:40:10.554Z,0.60
2018-12-14T10:42:38.307Z,0.80
2018-12-14T10:45:06.979Z,0.80
2018-12-14T10:47:34.757Z,0.70
2018-12-14T10:50:02.526Z,0.60
2018-12-14T10:52:30.214Z,0.60
2018-12-14T10:54:58.013Z,0.60
2018-12-14T10:57:25.699Z,0.40
2018-12-14T10:59:53.487Z,0.30
2018-12-14T11:02:21.230Z,0.20
2018-12-14T11:04:48.961Z,0.20
2018-12-14T11:07:16.690Z,0.20
2018-12-14T11:09:44.470Z,0.30
2018-12-14T11:12:12.242Z,0.40
2018-12-14T11:14:39.917Z,0.40
2018-12-14T11:17:07.679Z,0.40
2018-12-14T11:19:35.434Z,0.30
2018-12-14T11:22:03.114Z,0.30
2018-12-14T11:24:30.861Z,0.30
2018-12-14T11:26:58.564Z,0.30
2018-12-14T11:29:26.279Z,0.20
2018-12-14T11:31:53.966Z,0.20
2018-12-14T11:34:21.683Z,0.20
2018-12-14T11:36:49.350Z,0.30
2018-12-14T11:39:17.070Z,0.30
2018-12-14T11:41:44.801Z,0.40
2018-12-14T11:44:12.518Z,0.50
2018-12-14T11:46:40.220Z,0.60
2018-12-14T11:49:07.948Z,0.50
2018-12-14T11:51:35.715Z,0.40
2018-12-14T11:54:03.479Z,0.30
2018-12-14T11:56:31.191Z,0.40
2018-12-14T11:58:58.922Z,0.40
2018-12-14T12:01:28.320Z,0.40
2018-12-14T12:03:56.162Z,0.30
2018-12-14T12:06:23.863Z,0.30
2018-12-14T12:08:51.600Z,0.20
2018-12-14T12:11:19.331Z,0.20
2018-12-14T12:13:47.054Z,0.10
2018-12-14T12:16:14.760Z,0.10
2018-12-14T12:18:42.450Z,0.10
2018-12-14T12:21:10.206Z,0.10
2018-12-14T12:23:37.910Z,0.10
2018-12-14T12:26:05.651Z,0.10
2018-12-14T12:28:34.138Z,0.10
2018-12-14T12:31:01.879Z,0.00
2018-12-14T12:33:29.601Z,0.00
2018-12-14T12:35:57.374Z,-0.10
2018-12-14T12:38:25.107Z,-0.10
2018-12-14T12:40:52.847Z,-0.10
2018-12-14T12:43:20.568Z,0.00
2018-12-14T12:45:48.329Z,0.00
2018-12-14T12:48:16.073Z,0.00
2018-12-14T12:50:43.804Z,0.00
2018-12-14T12:53:11.517Z,0.00
2018-12-14T12:55:39.252Z,0.00
2018-12-14T12:58:06.979Z,0.10
2018-12-14T13:00:34.843Z,0.10
2018-12-14T13:03:02.532Z,0.10
2018-12-14T13:05:34.853Z,0.10
2018-12-14T13:08:00.027Z,0.00
2018-12-14T13:10:27.744Z,0.10
2018-12-14T13:12:55.494Z,0.20
2018-12-14T13:15:23.196Z,0.20
2018-12-14T13:17:50.894Z,0.20
2018-12-14T13:20:18.680Z,0.20
2018-12-14T13:22:46.446Z,0.10
2018-12-14T13:25:14.159Z,0.00
2018-12-14T13:27:41.927Z,-0.10
2018-12-14T13:30:09.644Z,-0.10
2018-12-14T13:32:37.408Z,-0.20
2018-12-14T13:35:06.453Z,-0.30
2018-12-14T13:37:34.163Z,-0.40
2018-12-14T13:40:01.930Z,-0.40
2018-12-14T13:42:29.748Z,-0.40
2018-12-14T13:44:57.521Z,-0.40
2018-12-14T13:47:25.302Z,-0.40
2018-12-14T13:49:53.058Z,-0.40
2018-12-14T13:52:20.808Z,-0.30
2018-12-14T13:54:48.506Z,-0.30
2018-12-14T13:57:16.271Z,-0.30
2018-12-14T13:59:43.974Z,-0.30
2018-12-14T14:02:11.751Z,-0.30
2018-12-14T14:04:39.453Z,-0.30
2018-12-14T14:07:07.183Z,-0.40
2018-12-14T14:09:34.987Z,-0.30
2018-12-14T14:12:02.704Z,-0.40
2018-12-14T14:14:30.459Z,-0.40
2018-12-14T14:16:58.453Z,-0.40
2018-12-14T14:19:26.399Z,-0.40
2018-12-14T14:21:54.139Z,-0.40
2018-12-14T14:24:21.899Z,-0.30
2018-12-14T14:26:49.600Z,-0.30
2018-12-14T14:29:17.283Z,-0.30
2018-12-14T14:31:44.997Z,-0.40
2018-12-14T14:34:12.681Z,-0.40
2018-12-14T14:36:40.428Z,-0.40
2018-12-14T14:39:08.130Z,-0.40
2018-12-14T14:41:35.902Z,-0.40
2018-12-14T14:44:03.588Z,-0.40
2018-12-14T14:46:31.264Z,-0.40
2018-12-14T14:48:59.020Z,-0.50
2018-12-14T14:51:26.883Z,-0.50
2018-12-14T14:53:54.545Z,-0.40
2018-12-14T14:56:22.299Z,-0.50
2018-12-14T14:58:50.064Z,-0.50
2018-12-14T15:01:17.765Z,-0.50
2018-12-14T15:03:45.515Z,-0.40
2018-12-14T15:06:15.562Z,-0.40
2018-12-14T15:08:43.330Z,-0.40
2018-12-14T15:11:11.053Z,-0.50
2018-12-14T15:13:38.796Z,-0.50
2018-12-14T15:16:06.482Z,-0.50
2018-12-14T15:18:34.248Z,-0.50
2018-12-14T15:21:01.939Z,-0.60
2018-12-14T15:23:29.627Z,-0.60
2018-12-14T15:25:57.295Z,-0.70
2018-12-14T15:28:25.035Z,-0.70
2018-12-14T15:30:52.763Z,-0.70
2018-12-14T15:33:20.511Z,-0.80
2018-12-14T15:35:48.388Z,-0.80
2018-12-14T15:38:16.139Z,-0.80
2018-12-14T15:40:43.816Z,-0.80
2018-12-14T15:43:11.552Z,-0.80
2018-12-14T15:45:39.278Z,-0.90
2018-12-14T15:48:07.521Z,-0.90
2018-12-14T15:50:35.328Z,-0.90
2018-12-14T15:53:06.222Z,-0.90
2018-12-14T15:55:34.362Z,-0.90
2018-12-14T15:58:02.165Z,-1.00
2018-12-14T16:00:29.962Z,-1.00
2018-12-14T16:02:57.687Z,-1.00
2018-12-14T16:05:25.528Z,-1.00
2018-12-14T16:07:53.285Z,-1.00
2018-12-14T16:10:21.086Z,-1.00
2018-12-14T16:12:48.855Z,-1.00
2018-12-14T16:15:20.072Z,-1.00
2018-12-14T16:17:46.362Z,-1.00
2018-12-14T16:20:14.187Z,-1.00
2018-12-14T16:22:41.955Z,-1.00
2018-12-14T16:25:09.823Z,-1.00
2018-12-14T16:27:37.985Z,-0.90
2018-12-14T16:30:07.527Z,-0.90
2018-12-14T16:32:35.313Z,-0.90
2018-12-14T16:35:03.309Z,-0.90
2018-12-14T16:37:31.248Z,-0.90
2018-12-14T16:40:04.311Z,-0.90
2018-12-14T16:42:32.133Z,-0.90
2018-12-14T16:44:59.965Z,-0.80
2018-12-14T16:47:27.825Z,-0.90
2018-12-14T16:49:55.616Z,-0.90
2018-12-14T16:52:23.454Z,-0.90
2018-12-14T16:54:51.278Z,-0.90
2018-12-14T16:57:19.206Z,-0.90
2018-12-14T16:59:47.028Z,-0.90
2018-12-14T17:02:14.788Z,-0.90
2018-12-14T17:04:42.659Z,-0.90
2018-12-14T17:07:10.509Z,-0.90
2018-12-14T17:09:38.352Z,-0.90
2018-12-14T17:12:06.206Z,-0.90
2018-12-14T17:14:34.028Z,-0.90
2018-12-14T17:17:01.811Z,-0.90
2018-12-14T17:19:29.635Z,-1.00
2018-12-14T17:21:57.378Z,-1.00
2018-12-14T17:24:25.175Z,-1.00
2018-12-14T17:26:56.311Z,-1.00
2018-12-14T17:29:24.158Z,-1.00
2018-12-14T17:31:52.097Z,-1.00
2018-12-14T17:34:19.989Z,-1.00
2018-12-14T17:36:47.889Z,-1.10
2018-12-14T17:39:15.721Z,-1.10
2018-12-14T17:41:43.630Z,-1.10
2018-12-14T17:44:11.494Z,-1.10
2018-12-14T17:46:39.510Z,-1.10
2018-12-14T17:49:07.374Z,-1.10
2018-12-14T17:51:35.362Z,-1.10
2018-12-14T17:54:03.206Z,-1.10
2018-12-14T17:56:32.424Z,-1.10
2018-12-14T17:59:00.248Z,-1.10
2018-12-14T18:01:28.089Z,-1.10
2018-12-14T18:03:57.094Z,-1.00
2018-12-14T18:06:25.142Z,-1.00
2018-12-14T18:08:52.990Z,-1.00
2018-12-14T18:11:20.829Z,-1.00
2018-12-14T18:13:48.633Z,-1.00
2018-12-14T18:16:16.769Z,-1.00
2018-12-14T18:18:44.585Z,-1.00
2018-12-14T18:21:12.450Z,-1.00
2018-12-14T18:23:40.288Z,-1.00
2018-12-14T18:26:08.105Z,-1.00
2018-12-14T18:28:35.942Z,-0.90
2018-12-14T18:31:03.784Z,-0.90
2018-12-14T18:33:31.834Z,-0.90
2018-12-14T18:35:59.824Z,-0.90
2018-12-14T18:38:27.819Z,-0.90
2018-12-14T18:40:55.695Z,-0.90
2018-12-14T18:43:23.507Z,-0.90
2018-12-14T18:45:53.292Z,-0.90
2018-12-14T18:48:21.397Z,-0.90
2018-12-14T18:50:49.218Z,-0.90
2018-12-14T18:53:17.148Z,-0.90
2018-12-14T18:55:45.118Z,-0.90
2018-12-14T18:58:12.928Z,-1.00
2018-12-14T19:00:40.847Z,-0.90
2018-12-14T19:03:08.840Z,-0.90
2018-12-14T19:05:36.791Z,-1.00
2018-12-14T19:08:04.653Z,-0.90
2018-12-14T19:10:32.613Z,-0.90
2018-12-14T19:13:00.518Z,-0.90
2018-12-14T19:15:28.436Z,-0.90
2018-12-14T19:17:56.276Z,-0.90
2018-12-14T19:20:24.173Z,-1.00
2018-12-14T19:22:51.970Z,-1.00
2018-12-14T19:25:19.844Z,-1.00
2018-12-14T19:27:47.674Z,-1.00
2018-12-14T19:30:15.559Z,-1.00
2018-12-14T19:32:43.413Z,-1.00
2018-12-14T19:35:11.279Z,-1.00
2018-12-14T19:37:39.986Z,-1.00
2018-12-14T19:40:09.355Z,-1.00
2018-12-14T19:42:37.243Z,-1.00
2018-12-14T19:45:07.580Z,-1.00
2018-12-14T19:47:35.643Z,-1.00
2018-12-14T19:50:05.882Z,-1.10
2018-12-14T19:52:33.821Z,-1.10
2018-12-14T19:55:01.683Z,-1.10
2018-12-14T19:57:29.618Z,-1.10
2018-12-14T19:59:57.472Z,-1.10
2018-12-14T20:02:25.375Z,-1.20
2018-12-14T20:04:53.212Z,-1.20
2018-12-14T20:07:21.078Z,-1.20
2018-12-14T20:09:49.009Z,-1.10
2018-12-14T20:12:16.876Z,-1.20
2018-12-14T20:14:44.799Z,-1.20
2018-12-14T20:17:12.693Z,-1.20
2018-12-14T20:19:40.658Z,-1.20
2018-12-14T20:22:08.585Z,-1.20
2018-12-14T20:24:36.536Z,-1.20
2018-12-14T20:27:04.514Z,-1.20
2018-12-14T20:29:32.400Z,-1.20
2018-12-14T20:32:00.364Z,-1.20
2018-12-14T20:34:28.333Z,-1.20
2018-12-14T20:36:56.216Z,-1.20
2018-12-14T20:39:24.170Z,-1.20
2018-12-14T20:41:52.173Z,-1.20
2018-12-14T20:44:20.076Z,-1.20
2018-12-14T20:46:47.960Z,-1.20
2018-12-14T20:49:15.960Z,-1.20
2018-12-14T20:51:43.832Z,-1.10
2018-12-14T20:54:11.670Z,-1.20
2018-12-14T20:56:39.640Z,-1.20
2018-12-14T20:59:07.522Z,-1.20
2018-12-14T21:01:35.465Z,-1.20
2018-12-14T21:04:03.373Z,-1.20
2018-12-14T21:06:31.989Z,-1.20
2018-12-14T21:08:59.828Z,-1.20
2018-12-14T21:11:27.662Z,-1.30
2018-12-14T21:13:55.544Z,-1.30
2018-12-14T21:16:26.094Z,-1.30
2018-12-14T21:18:53.352Z,-1.30
2018-12-14T21:21:21.197Z,-1.30
2018-12-14T21:23:49.060Z,-1.30
2018-12-14T21:26:16.927Z,-1.30
2018-12-14T21:28:44.808Z,-1.30
2018-12-14T21:31:12.702Z,-1.30
2018-12-14T21:33:40.529Z,-1.30
2018-12-14T21:36:08.315Z,-1.30
2018-12-14T21:38:36.095Z,-1.20
2018-12-14T21:41:03.898Z,-1.20
2018-12-14T21:43:31.727Z,-1.20
2018-12-14T21:45:59.486Z,-1.30
2018-12-14T21:48:28.711Z,-1.30
2018-12-14T21:50:56.473Z,-1.30
2018-12-14T21:53:24.288Z,-1.30
2018-12-14T21:55:52.037Z,-1.30
2018-12-14T21:58:19.793Z,-1.30
2018-12-14T22:00:47.537Z,-1.30
2018-12-14T22:03:15.282Z,-1.30
2018-12-14T22:05:43.037Z,-1.40
2018-12-14T22:08:10.795Z,-1.30
2018-12-14T22:10:38.475Z,-1.40
2018-12-14T22:13:06.204Z,-1.40
2018-12-14T22:15:33.967Z,-1.40
2018-12-14T22:18:01.676Z,-1.40
2018-12-14T22:20:29.384Z,-1.40
2018-12-14T22:22:57.106Z,-1.40
2018-12-14T22:25:24.849Z,-1.40
2018-12-14T22:27:52.595Z,-1.40
2018-12-14T22:30:20.375Z,-1.40
2018-12-14T22:32:48.123Z,-1.40
2018-12-14T22:35:15.829Z,-1.40
2018-12-14T22:37:43.588Z,-1.40
2018-12-14T22:40:11.327Z,-1.40
2018-12-14T22:42:39.044Z,-1.40
2018-12-14T22:45:06.935Z,-1.40
2018-12-14T22:47:34.609Z,-1.40
2018-12-14T22:50:02.313Z,-1.40
2018-12-14T22:52:30.010Z,-1.40
2018-12-14T22:54:57.770Z,-1.40
2018-12-14T22:57:25.455Z,-1.40
2018-12-14T22:59:53.177Z,-1.40
2018-12-14T23:02:20.883Z,-1.40
2018-12-14T23:04:48.624Z,-1.40
2018-12-14T23:07:16.280Z,-1.40
2018-12-14T23:09:43.955Z,-1.40
2018-12-14T23:12:11.715Z,-1.40
2018-12-14T23:14:39.447Z,-1.40
2018-12-14T23:17:07.122Z,-1.40
2018-12-14T23:19:34.794Z,-1.40
2018-12-14T23:22:02.519Z,-1.50
2018-12-14T23:24:30.250Z,-1.40
2018-12-14T23:26:57.983Z,-1.50
2018-12-14T23:29:25.724Z,-1.50
2018-12-14T23:31:53.440Z,-1.50
2018-12-14T23:34:21.133Z,-1.50
2018-12-14T23:36:48.889Z,-1.50
2018-12-14T23:39:16.591Z,-1.50
2018-12-14T23:41:44.277Z,-1.50
2018-12-14T23:44:11.999Z,-1.50
2018-12-14T23:46:39.772Z,-1.50
2018-12-14T23:49:07.498Z,-1.50
2018-12-14T23:51:35.216Z,-1.50
2018-12-14T23:54:02.907Z,-1.50
2018-12-14T23:56:30.640Z,-1.50
2018-12-14T23:58:58.377Z,-1.50
